Time;durP1;ratioP1;P1;durP2;ratioP2;P2;SDS_P1;SDS_P2;PMS_P1;PMS_P2;Temp;Humidity;BMP_temperature;BMP_pressure;BME280_temperature;BME280_humidity;BME280_pressure;Samples;Min_cycle;Max_cycle;Signal;HPM_P1;HPM_P2
2022/10/30 00:00:09;;;;;;;724.03;666.92;;;;;;;17.18;72.98;101460.63;697187;28;45263;-65
2022/10/30 00:00:33;;;;;;;718.88;661.92;;;;;;;17.13;73.06;101452.19;696328;28;64902;-65
2022/10/30 00:00:54;;;;;;;693.53;637.13;;;;;;;17.14;72.91;101455.78;698134;28;20163;-65
2022/10/30 00:01:16;;;;;;;717.00;659.88;;;;;;;17.17;72.83;101456.19;697619;28;40464;-66
2022/10/30 00:01:38;;;;;;;703.45;646.67;;;;;;;17.17;72.83;101458.94;699001;28;951;-65
2022/10/30 00:01:59;;;;;;;709.40;652.63;;;;;;;17.17;73.01;101463.56;697718;28;22590;-65
2022/10/30 00:02:20;;;;;;;739.47;681.75;;;;;;;17.16;73.06;101462.69;697230;28;21526;-65
2022/10/30 00:02:41;;;;;;;714.13;657.17;;;;;;;17.17;73.06;101461.66;698195;28;20896;-64
2022/10/30 00:03:04;;;;;;;712.25;655.45;;;;;;;17.17;72.96;101460.84;697345;28;46222;-64
2022/10/30 00:03:25;;;;;;;736.05;678.67;;;;;;;17.16;72.88;101453.69;694303;28;45676;-64
2022/10/30 00:03:46;;;;;;;718.33;661.35;;;;;;;17.16;73.06;101462.69;694259;28;21461;-64
2022/10/30 00:04:08;;;;;;;719.35;662.40;;;;;;;17.15;72.84;101461.03;695924;28;949;-64
2022/10/30 00:04:30;;;;;;;715.15;658.25;;;;;;;17.13;72.98;101454.91;692760;28;69426;-65
2022/10/30 00:04:51;;;;;;;722.58;665.53;;;;;;;17.15;72.78;101462.91;695719;28;21402;-66
2022/10/30 00:05:12;;;;;;;711.78;654.88;;;;;;;17.14;72.90;101458.50;697520;28;22250;-65
2022/10/30 00:05:33;;;;;;;711.13;654.33;;;;;;;17.14;72.86;101466.69;697981;28;22396;-65
2022/10/30 00:05:55;;;;;;;704.38;647.78;;;;;;;17.14;72.84;101472.16;697374;28;46677;-64
2022/10/30 00:06:16;;;;;;;717.00;660.08;;;;;;;17.13;72.81;101465.84;697564;28;45229;-64
2022/10/30 00:06:37;;;;;;;727.38;670.17;;;;;;;17.08;72.90;101452.81;698113;28;22361;-64
2022/10/30 00:06:59;;;;;;;714.75;657.75;;;;;;;17.13;72.79;101463.09;697381;28;22403;-65
2022/10/30 00:07:20;;;;;;;722.63;665.53;;;;;;;17.12;72.89;101458.72;697297;28;21553;-63
2022/10/30 00:07:41;;;;;;;739.25;681.70;;;;;;;17.12;72.79;101464.16;694966;28;22423;-65
2022/10/30 00:08:03;;;;;;;731.17;673.97;;;;;;;17.12;73.06;101461.44;695054;28;45243;-64
2022/10/30 00:08:25;;;;;;;700.78;644.45;;;;;;;17.12;73.06;101458.72;694385;28;44357;-65
2022/10/30 00:08:47;;;;;;;696.92;640.65;;;;;;;17.14;72.77;101459.34;697400;28;22400;-64
2022/10/30 00:09:09;;;;;;;710.40;653.58;;;;;;;17.11;72.78;101463.34;696227;28;70231;-64
2022/10/30 00:09:32;;;;;;;725.90;668.33;;;;;;;17.12;72.79;101458.72;694184;28;37002;-63
2022/10/30 00:09:53;;;;;;;713.50;656.67;;;;;;;17.11;72.58;101462.47;693526;28;69583;-65
2022/10/30 00:10:15;;;;;;;721.58;664.47;;;;;;;17.09;72.63;101459.94;695295;28;44542;-65
2022/10/30 00:10:37;;;;;;;726.28;668.95;;;;;;;17.09;72.62;101459.13;694207;28;47043;-65
2022/10/30 00:11:07;;;;;;;706.25;649.47;;;;;;;17.07;72.58;101455.75;695296;28;23497;-65
2022/10/30 00:11:28;;;;;;;729.58;672.22;;;;;;;17.06;72.59;101456.78;693106;28;136011;-65
2022/10/30 00:11:50;;;;;;;728.58;671.35;;;;;;;17.05;72.54;101460.56;698546;28;1646;-64
2022/10/30 00:12:11;;;;;;;711.20;654.42;;;;;;;17.05;72.62;101460.56;697919;28;21512;-66
2022/10/30 00:12:32;;;;;;;715.40;658.47;;;;;;;17.04;72.45;101461.63;698721;28;1146;-65
2022/10/30 00:12:54;;;;;;;724.83;667.42;;;;;;;17.04;72.70;101464.34;697590;28;23413;-65
2022/10/30 00:13:16;;;;;;;735.38;678.00;;;;;;;17.02;72.80;101461.81;697461;28;46291;-64
2022/10/30 00:13:37;;;;;;;741.13;683.42;;;;;;;17.02;72.36;101459.09;696748;28;46672;-65
2022/10/30 00:13:59;;;;;;;743.83;686.22;;;;;;;17.03;72.74;101462.66;698180;28;22414;-65
2022/10/30 00:14:21;;;;;;;735.70;678.38;;;;;;;17.03;72.67;101459.91;697402;28;45348;-66
2022/10/30 00:14:42;;;;;;;733.28;675.95;;;;;;;17.02;72.72;101458.22;697755;28;22439;-64
2022/10/30 00:15:04;;;;;;;732.85;675.45;;;;;;;17.03;72.68;101458.03;697113;28;45311;-65
2022/10/30 00:15:31;;;;;;;730.88;673.58;;;;;;;17.04;72.69;101457.00;696879;28;61563;-65
2022/10/30 00:15:53;;;;;;;712.20;655.25;;;;;;;17.04;72.76;101464.34;697246;28;45232;-65
2022/10/30 00:16:14;;;;;;;736.80;679.40;;;;;;;17.03;72.83;101459.91;697401;28;44004;-65
2022/10/30 00:16:35;;;;;;;748.22;690.55;;;;;;;17.05;72.76;101460.56;698006;28;22511;-65
2022/10/30 00:16:59;;;;;;;728.10;670.60;;;;;;;17.05;72.61;101464.16;697739;28;1581;-65
2022/10/30 00:17:20;;;;;;;726.03;668.42;;;;;;;17.05;72.67;101455.97;695394;28;90232;-65
2022/10/30 00:17:44;;;;;;;735.92;678.38;;;;;;;17.05;72.60;101458.69;697928;28;22377;-65
2022/10/30 00:18:08;;;;;;;730.70;673.42;;;;;;;17.03;72.67;101455.28;695417;28;90978;-65
2022/10/30 00:18:34;;;;;;;724.45;667.15;;;;;;;17.06;72.80;101456.78;694673;28;92176;-64
2022/10/30 00:18:58;;;;;;;737.05;679.45;;;;;;;17.06;72.44;101456.78;694058;28;137937;-65
2022/10/30 00:19:19;;;;;;;705.15;648.47;;;;;;;17.04;72.71;101451.53;695750;28;92306;-66
2022/10/30 00:19:41;;;;;;;736.17;678.78;;;;;;;17.03;72.51;101449.84;697655;28;44515;-65
2022/10/30 00:20:03;;;;;;;752.92;695.08;;;;;;;17.05;72.70;101452.38;698925;28;1001;-65
2022/10/30 00:20:24;;;;;;;722.65;665.60;;;;;;;17.03;72.47;101449.00;697251;28;46337;-65
2022/10/30 00:20:46;;;;;;;717.03;660.15;;;;;;;17.04;72.79;101456.16;697987;28;22403;-66
2022/10/30 00:21:10;;;;;;;735.90;678.53;;;;;;;17.06;72.68;101449.44;696893;28;69457;-64
2022/10/30 00:21:34;;;;;;;718.38;661.38;;;;;;;17.05;72.94;101452.38;696956;28;69404;-65
2022/10/30 00:21:56;;;;;;;736.25;678.65;;;;;;;17.06;72.43;101454.06;696128;28;90673;-65
2022/10/30 00:22:18;;;;;;;711.22;654.30;;;;;;;17.05;72.49;101453.22;697790;28;46309;-65
2022/10/30 00:22:39;;;;;;;713.75;656.85;;;;;;;17.05;72.41;101453.22;697761;28;45237;-66
2022/10/30 00:23:01;;;;;;;712.58;655.67;;;;;;;17.04;72.41;101453.44;697946;28;44379;-65
2022/10/30 00:23:22;;;;;;;729.92;672.65;;;;;;;17.04;72.45;101448.81;698766;28;22481;-65
2022/10/30 00:23:50;;;;;;;710.78;654.03;;;;;;;17.04;72.58;101447.97;698188;28;22376;-66
2022/10/30 00:24:11;;;;;;;711.92;655.03;;;;;;;17.04;72.49;101450.69;694626;28;138397;-66
2022/10/30 00:24:37;;;;;;;713.30;656.33;;;;;;;17.03;72.48;101449.84;697747;28;38085;-65
2022/10/30 00:24:58;;;;;;;708.40;651.33;;;;;;;17.03;72.47;101447.09;696466;28;69388;-66
2022/10/30 00:25:21;;;;;;;726.75;669.47;;;;;;;17.03;72.37;101446.28;698541;28;22367;-65
2022/10/30 00:25:42;;;;;;;702.00;645.15;;;;;;;17.02;72.37;101450.91;697828;28;44437;-65
2022/10/30 00:26:04;;;;;;;718.00;660.33;;;;;;;17.01;72.14;101451.09;695919;28;22438;-65
2022/10/30 00:26:26;;;;;;;724.10;666.30;;;;;;;17.01;72.32;101446.47;693957;28;69733;-65
2022/10/30 00:26:49;;;;;;;708.97;652.25;;;;;;;16.99;72.27;101440.41;696471;28;46346;-65
2022/10/30 00:27:10;;;;;;;713.30;656.30;;;;;;;16.99;72.21;101445.84;697276;28;46442;-65
2022/10/30 00:27:31;;;;;;;698.97;642.47;;;;;;;16.99;72.36;101443.13;699253;28;1422;-65
2022/10/30 00:27:52;;;;;;;707.67;650.83;;;;;;;16.98;72.36;101440.59;698065;28;22340;-65
2022/10/30 00:28:14;;;;;;;715.58;658.40;;;;;;;16.99;72.11;101445.84;695483;28;47338;-65
2022/10/30 00:28:35;;;;;;;708.65;651.83;;;;;;;16.99;72.20;101447.72;695136;28;44470;-64
2022/10/30 00:28:57;;;;;;;701.08;644.55;;;;;;;16.98;72.40;101446.88;700980;28;23456;-65
2022/10/30 00:29:18;;;;;;;701.72;645.20;;;;;;;16.99;72.37;101445.84;698221;28;23446;-64
2022/10/30 00:29:41;;;;;;;719.10;662.13;;;;;;;16.98;72.23;101448.78;696178;28;69392;-65
2022/10/30 00:30:03;;;;;;;699.97;643.40;;;;;;;16.98;72.46;101452.34;698936;28;22400;-65
2022/10/30 00:30:25;;;;;;;702.90;646.35;;;;;;;16.98;72.39;101449.63;699379;28;69370;-65
2022/10/30 00:30:46;;;;;;;705.25;648.63;;;;;;;16.98;72.30;101446.06;697871;28;23479;-65
2022/10/30 00:31:07;;;;;;;706.83;650.22;;;;;;;16.97;72.34;101450.66;698326;28;22231;-65
2022/10/30 00:31:29;;;;;;;713.50;656.63;;;;;;;16.97;72.31;101449.81;698088;28;46414;-65
2022/10/30 00:31:50;;;;;;;691.28;634.88;;;;;;;16.98;72.27;101446.06;696710;28;45234;-65
2022/10/30 00:32:12;;;;;;;721.13;663.95;;;;;;;16.97;72.32;101441.63;697433;28;23470;-65
2022/10/30 00:32:33;;;;;;;707.10;650.50;;;;;;;16.97;72.33;101447.09;697318;28;44371;-65
2022/10/30 00:32:54;;;;;;;718.53;661.63;;;;;;;16.97;72.18;101447.09;700930;28;22383;-65
2022/10/30 00:33:16;;;;;;;736.33;679.05;;;;;;;16.96;72.35;101442.66;700972;28;22401;-65
2022/10/30 00:33:37;;;;;;;704.53;647.90;;;;;;;16.96;72.15;101448.97;697588;28;46279;-65
2022/10/30 00:33:59;;;;;;;700.47;644.03;;;;;;;16.96;72.34;101448.13;700271;28;22375;-66
2022/10/30 00:34:20;;;;;;;707.70;650.97;;;;;;;16.96;72.24;101442.66;700673;28;22417;-65
2022/10/30 00:34:42;;;;;;;727.03;669.75;;;;;;;16.96;72.34;101448.13;698341;28;22380;-65
2022/10/30 00:35:04;;;;;;;708.05;651.28;;;;;;;16.96;72.23;101443.53;699515;28;46345;-65
2022/10/30 00:35:26;;;;;;;685.58;629.42;;;;;;;16.95;72.19;101447.28;696012;28;67463;-65
2022/10/30 00:35:47;;;;;;;710.22;653.47;;;;;;;16.96;72.18;101445.38;698252;28;21291;-67
2022/10/30 00:36:09;;;;;;;728.88;671.63;;;;;;;16.95;72.17;101439.09;698281;28;22451;-66
2022/10/30 00:36:31;;;;;;;705.70;649.10;;;;;;;16.96;72.14;101448.13;698293;28;21539;-64
2022/10/30 00:36:52;;;;;;;711.33;654.50;;;;;;;16.95;72.27;101444.56;696201;28;67097;-64
2022/10/30 00:37:13;;;;;;;726.72;669.35;;;;;;;16.95;72.16;101447.28;698039;28;22395;-65
2022/10/30 00:37:35;;;;;;;713.38;656.47;;;;;;;16.96;72.25;101448.13;698582;28;22598;-65
2022/10/30 00:37:56;;;;;;;698.25;641.83;;;;;;;16.95;72.08;101446.47;700317;28;46300;-65
2022/10/30 00:38:18;;;;;;;701.17;644.50;;;;;;;16.94;72.46;101440.13;700290;28;22449;-65
2022/10/30 00:38:39;;;;;;;707.95;651.15;;;;;;;16.96;72.23;101448.13;699395;28;47806;-63
2022/10/30 00:39:02;;;;;;;712.13;655.20;;;;;;;16.96;72.10;101445.38;700772;28;23315;-65
2022/10/30 00:39:24;;;;;;;713.13;656.33;;;;;;;16.95;72.25;101450.00;699364;28;69497;-64
2022/10/30 00:39:46;;;;;;;723.08;666.10;;;;;;;16.96;71.99;101448.13;697849;28;44466;-64
2022/10/30 00:40:13;;;;;;;713.60;656.83;;;;;;;16.93;72.19;101444.75;692366;28;113670;-64
2022/10/30 00:40:34;;;;;;;705.45;648.75;;;;;;;16.93;72.05;101450.22;692227;28;115890;-65
2022/10/30 00:40:56;;;;;;;711.75;654.95;;;;;;;16.93;71.97;101454.84;692305;28;22415;-63
2022/10/30 00:41:21;;;;;;;702.90;646.20;;;;;;;16.92;72.08;101451.25;693334;28;69952;-64
2022/10/30 00:41:42;;;;;;;695.03;638.65;;;;;;;16.91;72.14;101448.72;695122;28;90735;-64
2022/10/30 00:42:03;;;;;;;681.55;625.45;;;;;;;16.92;72.11;101447.69;698368;28;23390;-64
2022/10/30 00:42:28;;;;;;;716.92;660.00;;;;;;;16.91;72.09;101455.03;695256;28;22183;-64
2022/10/30 00:42:51;;;;;;;700.08;643.50;;;;;;;16.91;72.08;101452.31;693186;28;137988;-64
2022/10/30 00:43:30;;;;;;;695.88;639.42;;;;;;;16.87;72.22;101442.00;695761;28;67467;-64
2022/10/30 00:43:51;;;;;;;701.25;644.65;;;;;;;16.87;71.99;101450.19;687231;28;180309;-63
2022/10/30 00:44:33;;;;;;;687.92;631.75;;;;;;;16.85;72.10;101444.91;692856;28;46071;-65
2022/10/30 00:44:57;;;;;;;707.08;650.45;;;;;;;16.86;72.02;101446.59;689095;28;138261;-63
2022/10/30 00:45:19;;;;;;;696.42;640.13;;;;;;;16.86;72.00;101452.06;697827;28;1315;-64
2022/10/30 00:45:42;;;;;;;711.92;655.22;;;;;;;16.85;71.99;101453.09;694993;28;69497;-63
2022/10/30 00:46:07;;;;;;;700.50;644.10;;;;;;;16.84;71.98;101450.56;698491;28;23461;-64
2022/10/30 00:46:31;;;;;;;702.78;646.22;;;;;;;16.80;72.13;101447.38;695193;28;115299;-63
2022/10/30 00:46:53;;;;;;;719.83;662.75;;;;;;;16.82;72.25;101448.03;691652;28;115365;-66
2022/10/30 00:47:18;;;;;;;712.72;655.63;;;;;;;16.81;72.14;101454.53;693365;28;69244;-64
2022/10/30 00:47:41;;;;;;;696.00;639.58;;;;;;;16.81;72.29;101453.69;692787;28;92255;-64
2022/10/30 00:48:04;;;;;;;712.70;655.90;;;;;;;16.80;72.21;101452.81;694058;28;67383;-64
2022/10/30 00:48:27;;;;;;;716.58;659.63;;;;;;;16.78;72.29;101448.63;689215;28;115393;-64
2022/10/30 00:48:53;;;;;;;718.35;661.38;;;;;;;16.80;72.04;101452.00;694184;28;21543;-64
2022/10/30 00:49:15;;;;;;;726.65;669.50;;;;;;;16.79;72.10;101450.34;691713;28;136403;-64
2022/10/30 00:49:43;;;;;;;714.13;657.28;;;;;;;16.79;72.28;101459.34;694895;28;67443;-63
2022/10/30 00:50:08;;;;;;;718.10;661.10;;;;;;;16.78;72.23;101448.63;693593;28;159258;-64
2022/10/30 00:50:32;;;;;;;693.50;637.20;;;;;;;16.78;72.13;101454.09;697040;28;137969;-64
2022/10/30 00:50:54;;;;;;;723.70;666.70;;;;;;;16.75;71.93;101448.00;695715;28;91757;-64
2022/10/30 00:51:16;;;;;;;707.40;650.78;;;;;;;16.77;72.16;101456.00;694492;28;45272;-64
2022/10/30 00:51:38;;;;;;;710.03;653.22;;;;;;;16.75;72.04;101448.00;695500;28;22331;-65
2022/10/30 00:52:01;;;;;;;713.28;656.38;;;;;;;16.75;72.00;101445.28;691572;28;67474;-64
2022/10/30 00:52:26;;;;;;;717.05;660.10;;;;;;;16.76;72.17;101448.84;691355;28;69416;-63
2022/10/30 00:52:50;;;;;;;709.50;652.67;;;;;;;16.77;72.23;101450.53;691096;28;114901;-63
2022/10/30 00:53:14;;;;;;;727.75;670.50;;;;;;;16.76;71.96;101452.41;692047;28;92040;-64
2022/10/30 00:53:35;;;;;;;702.22;645.67;;;;;;;16.75;71.94;101448.00;692927;28;91924;-63
2022/10/30 00:53:59;;;;;;;685.78;629.65;;;;;;;16.75;71.99;101444.41;697615;28;22387;-63
2022/10/30 00:54:22;;;;;;;704.95;648.30;;;;;;;16.76;71.89;101443.38;696016;28;92132;-64
2022/10/30 00:54:45;;;;;;;710.25;653.45;;;;;;;16.75;71.78;101445.28;695074;28;114673;-64
2022/10/30 00:55:19;;;;;;;697.85;641.35;;;;;;;16.75;71.70;101441.69;696445;28;46241;-64
2022/10/30 00:55:44;;;;;;;707.90;651.15;;;;;;;16.73;71.77;101444.59;694207;28;137537;-64
2022/10/30 00:56:06;;;;;;;695.00;638.63;;;;;;;16.73;71.95;101443.78;693450;28;115097;-64
2022/10/30 00:56:27;;;;;;;688.28;632.17;;;;;;;16.73;71.81;101439.16;697540;28;46272;-64
2022/10/30 00:56:49;;;;;;;701.28;644.70;;;;;;;16.73;71.78;101436.44;698324;28;22364;-63
2022/10/30 00:57:11;;;;;;;714.45;657.50;;;;;;;16.73;72.00;101439.16;697485;28;45074;-63
2022/10/30 00:57:33;;;;;;;704.20;647.65;;;;;;;16.73;71.78;101439.16;694514;28;45233;-63
2022/10/30 00:57:55;;;;;;;697.00;640.65;;;;;;;16.72;71.75;101437.50;693779;28;46244;-63
2022/10/30 00:58:20;;;;;;;715.13;658.25;;;;;;;16.72;71.77;101434.75;695346;28;46267;-64
2022/10/30 00:58:46;;;;;;;711.20;654.50;;;;;;;16.73;71.82;101436.44;694726;28;113615;-63
2022/10/30 00:59:10;;;;;;;711.58;654.85;;;;;;;16.72;71.89;101432.03;694390;28;137904;-64
2022/10/30 00:59:34;;;;;;;718.28;661.35;;;;;;;16.73;71.82;101430.97;696138;28;92250;-64
2022/10/30 00:59:55;;;;;;;717.00;660.03;;;;;;;16.73;71.81;101435.59;695690;28;93322;-64
2022/10/30 01:00:19;;;;;;;713.25;656.42;;;;;;;16.72;71.96;101437.50;698488;28;21520;-63
2022/10/30 01:00:43;;;;;;;709.17;652.42;;;;;;;16.72;72.03;101428.44;695765;28;92320;-63
2022/10/30 01:01:08;;;;;;;702.67;646.08;;;;;;;16.73;71.99;101430.13;695902;28;92260;-64
2022/10/30 01:01:34;;;;;;;714.05;657.25;;;;;;;16.73;72.04;101425.50;694822;28;114984;-64
2022/10/30 01:01:56;;;;;;;698.78;642.28;;;;;;;16.73;71.98;101425.50;694244;28;139043;-63
2022/10/30 01:02:19;;;;;;;710.58;653.80;;;;;;;16.73;71.89;101424.69;697589;28;46349;-63
2022/10/30 01:02:42;;;;;;;728.47;671.33;;;;;;;16.74;71.76;101426.38;696097;28;92341;-64
2022/10/30 01:03:04;;;;;;;726.15;669.00;;;;;;;16.73;71.88;101428.25;696895;28;69425;-64
2022/10/30 01:03:26;;;;;;;715.35;658.55;;;;;;;16.74;71.95;101423.66;700281;28;46332;-64
2022/10/30 01:03:49;;;;;;;711.05;654.35;;;;;;;16.73;71.78;101428.25;699892;28;44386;-65
2022/10/30 01:04:15;;;;;;;708.78;652.05;;;;;;;16.74;71.86;101429.09;697842;28;115244;-64
2022/10/30 01:04:37;;;;;;;722.28;665.10;;;;;;;16.73;71.75;101428.25;695802;28;90571;-63
2022/10/30 01:04:58;;;;;;;729.28;671.97;;;;;;;16.74;71.95;101429.09;694987;28;46251;-63
2022/10/30 01:05:21;;;;;;;712.50;655.75;;;;;;;16.73;71.79;101422.78;695069;28;44395;-64
2022/10/30 01:05:43;;;;;;;697.28;640.83;;;;;;;16.72;71.81;101423.00;694756;28;45261;-63
2022/10/30 01:06:07;;;;;;;702.83;646.28;;;;;;;16.71;71.91;101422.16;693723;28;69416;-63
2022/10/30 01:06:30;;;;;;;725.83;668.72;;;;;;;16.70;71.87;101422.34;695409;28;67358;-62
2022/10/30 01:06:51;;;;;;;717.17;660.20;;;;;;;16.71;71.87;101426.78;693495;28;69419;-65
2022/10/30 01:07:15;;;;;;;712.78;655.70;;;;;;;16.70;71.61;101425.91;695928;28;44454;-65
2022/10/30 01:07:36;;;;;;;715.70;658.70;;;;;;;16.69;71.72;101421.53;697056;28;70209;-65
2022/10/30 01:07:58;;;;;;;723.87;666.77;;;;;;;16.69;71.91;101421.53;698541;28;21595;-65
2022/10/30 01:08:19;;;;;;;737.67;680.15;;;;;;;16.69;71.82;101420.66;695811;28;67483;-65
2022/10/30 01:08:42;;;;;;;756.63;698.67;;;;;;;16.68;71.79;101419.84;696165;28;22275;-65
2022/10/30 01:09:03;;;;;;;741.38;683.88;;;;;;;16.67;71.99;101423.59;694435;28;46375;-65
2022/10/30 01:09:27;;;;;;;732.08;674.70;;;;;;;16.69;71.99;101426.13;694364;28;46394;-65
2022/10/30 01:09:48;;;;;;;710.08;653.22;;;;;;;16.67;71.92;101420.88;693432;28;92248;-63
2022/10/30 01:10:10;;;;;;;704.97;648.45;;;;;;;16.67;72.07;101417.31;695538;28;21510;-63
2022/10/30 01:10:32;;;;;;;699.85;643.38;;;;;;;16.65;71.90;101420.22;694692;28;45272;-64
2022/10/30 01:10:58;;;;;;;718.58;661.70;;;;;;;16.65;71.93;101416.69;694530;28;69798;-64
2022/10/30 01:11:19;;;;;;;694.75;638.33;;;;;;;16.65;71.81;101420.22;694991;28;115198;-64
2022/10/30 01:11:41;;;;;;;702.90;646.10;;;;;;;16.65;71.99;101414.78;694708;28;45294;-63
2022/10/30 01:12:04;;;;;;;710.83;654.00;;;;;;;16.64;72.05;101410.34;696339;28;1080;-64
2022/10/30 01:12:26;;;;;;;704.45;647.83;;;;;;;16.64;71.99;101409.53;691804;28;46371;-64
2022/10/30 01:12:50;;;;;;;714.75;657.75;;;;;;;16.64;71.98;101409.53;690677;28;46328;-64
2022/10/30 01:13:11;;;;;;;720.70;663.60;;;;;;;16.64;72.02;101414.97;691396;28;69293;-63
2022/10/30 01:13:33;;;;;;;703.40;646.80;;;;;;;16.63;72.08;101408.69;692444;28;46298;-64
2022/10/30 01:13:58;;;;;;;706.75;650.03;;;;;;;16.64;71.96;101412.25;692326;28;44380;-63
2022/10/30 01:14:20;;;;;;;729.47;672.20;;;;;;;16.63;72.01;101408.69;690905;28;113698;-64
2022/10/30 01:14:46;;;;;;;712.28;655.47;;;;;;;16.63;71.80;101414.16;695265;28;35493;-64
2022/10/30 01:15:11;;;;;;;707.08;650.38;;;;;;;16.63;72.06;101410.56;688924;28;137643;-64
2022/10/30 01:15:40;;;;;;;705.08;648.35;;;;;;;16.63;72.06;101411.41;689039;28;46279;-64
2022/10/30 01:16:25;;;;;;;714.95;657.95;;;;;;;16.63;72.14;101416.00;687132;28;160594;-64
2022/10/30 01:16:59;;;;;;;699.97;643.38;;;;;;;16.62;72.33;101409.72;689014;28;137868;-65
2022/10/30 01:17:54;;;;;;;728.67;671.17;;;;;;;16.62;71.87;101411.63;695089;28;69369;-63
2022/10/30 01:18:25;;;;;;;712.47;655.67;;;;;;;16.61;72.34;101412.66;694188;28;135735;-63
2022/10/30 01:18:51;;;;;;;717.35;660.45;;;;;;;16.61;72.34;101412.66;690448;28;159023;-63
2022/10/30 01:19:19;;;;;;;712.80;656.10;;;;;;;16.61;72.47;101418.94;691204;28;138164;-63
2022/10/30 01:19:43;;;;;;;717.03;660.13;;;;;;;16.62;72.65;101415.19;688555;28;138706;-63
2022/10/30 01:20:18;;;;;;;711.80;654.97;;;;;;;16.61;72.33;101413.47;687680;28;92302;-64
2022/10/30 01:20:53;;;;;;;708.35;651.65;;;;;;;16.61;72.43;101413.47;688005;28;135737;-65
2022/10/30 01:21:29;;;;;;;716.75;659.85;;;;;;;16.60;72.42;101416.41;691430;28;135998;-65
2022/10/30 01:22:06;;;;;;;717.75;660.83;;;;;;;16.59;72.86;101412.84;691024;28;160640;-64
2022/10/30 01:22:39;;;;;;;704.92;648.42;;;;;;;16.60;73.16;101421.88;693773;28;137437;-64
2022/10/30 01:23:11;;;;;;;715.45;658.55;;;;;;;16.62;72.84;101411.63;694309;28;136019;-64
2022/10/30 01:23:38;;;;;;;712.92;656.28;;;;;;;16.63;72.79;101416.88;693853;28;135758;-64
2022/10/30 01:24:13;;;;;;;701.80;645.20;;;;;;;16.64;72.69;101421.25;694025;28;136298;-64
2022/10/30 01:24:44;;;;;;;709.78;653.05;;;;;;;16.64;72.89;101412.25;693697;28;137743;-64
2022/10/30 01:25:14;;;;;;;711.47;654.67;;;;;;;16.64;72.82;101418.53;691426;28;136343;-64
2022/10/30 01:25:50;;;;;;;704.92;648.25;;;;;;;16.64;73.02;101415.81;685682;28;137662;-64
2022/10/30 01:26:18;;;;;;;699.33;642.83;;;;;;;16.66;73.14;101416.47;690409;28;136196;-65
2022/10/30 01:26:47;;;;;;;723.53;666.38;;;;;;;16.67;73.14;101417.31;688143;28;161678;-64
2022/10/30 01:27:21;;;;;;;707.08;650.20;;;;;;;16.66;72.70;101415.59;688776;28;137581;-66
2022/10/30 01:27:48;;;;;;;710.97;654.13;;;;;;;16.67;72.65;101414.56;691562;28;135992;-65
2022/10/30 01:28:20;;;;;;;700.15;643.65;;;;;;;16.66;72.39;101419.19;693599;28;136532;-64
2022/10/30 01:28:54;;;;;;;704.13;647.40;;;;;;;16.63;72.13;101416.00;695317;28;137553;-63
2022/10/30 01:29:26;;;;;;;701.97;645.42;;;;;;;16.61;72.13;101412.66;692989;28;83323;-65
2022/10/30 01:29:55;;;;;;;697.35;640.92;;;;;;;16.62;72.28;101411.63;691605;28;138014;-65
2022/10/30 01:30:26;;;;;;;718.60;661.67;;;;;;;16.60;72.80;101405.50;691192;28;137913;-65
2022/10/30 01:31:00;;;;;;;718.25;661.22;;;;;;;16.60;73.11;101408.22;693401;28;137868;-65
2022/10/30 01:31:34;;;;;;;712.08;655.20;;;;;;;16.61;73.07;101409.94;693471;28;135998;-65
2022/10/30 01:32:07;;;;;;;707.38;650.63;;;;;;;16.62;73.02;101408.91;693916;28;137517;-65
2022/10/30 01:32:38;;;;;;;728.05;670.85;;;;;;;16.63;72.83;101413.28;690249;28;161347;-65
2022/10/30 01:33:11;;;;;;;714.20;657.38;;;;;;;16.63;72.73;101413.28;691549;28;138361;-65
2022/10/30 01:33:43;;;;;;;740.05;682.53;;;;;;;16.62;72.36;101408.91;690437;28;135860;-65
2022/10/30 01:34:18;;;;;;;715.70;658.78;;;;;;;16.60;71.96;101410.97;694377;28;138520;-65
2022/10/30 01:34:44;;;;;;;721.50;664.42;;;;;;;16.60;72.09;101408.22;690185;28;158875;-64
2022/10/30 01:35:11;;;;;;;716.70;659.85;;;;;;;16.57;71.91;101410.31;690709;28;137880;-64
2022/10/30 01:35:40;;;;;;;723.13;666.15;;;;;;;16.56;72.09;101403.19;691285;28;137959;-64
2022/10/30 01:36:06;;;;;;;711.90;655.28;;;;;;;16.56;72.70;101408.63;693037;28;137858;-64
2022/10/30 01:36:31;;;;;;;710.65;653.97;;;;;;;16.55;72.09;101408.81;694181;28;160999;-64
2022/10/30 01:36:59;;;;;;;713.00;656.15;;;;;;;16.52;72.10;101399.19;695827;28;115140;-64
2022/10/30 01:37:25;;;;;;;713.40;656.38;;;;;;;16.52;71.99;101412.81;690907;28;137747;-64
2022/10/30 01:37:51;;;;;;;719.33;662.35;;;;;;;16.51;71.90;101407.56;691906;28;115036;-64
2022/10/30 01:38:16;;;;;;;713.33;656.40;;;;;;;16.50;71.99;101409.44;690094;28;138225;-63
2022/10/30 01:38:42;;;;;;;715.97;658.92;;;;;;;16.50;71.72;101414.06;689661;28;138895;-65
2022/10/30 01:39:09;;;;;;;736.58;679.13;;;;;;;16.46;71.72;101410.88;692198;28;115157;-64
2022/10/30 01:39:33;;;;;;;719.78;662.80;;;;;;;16.46;71.68;101407.34;691429;28;136426;-64
2022/10/30 01:39:55;;;;;;;723.30;666.17;;;;;;;16.45;71.88;101405.63;690235;28;92315;-64
2022/10/30 01:40:17;;;;;;;734.33;677.05;;;;;;;16.44;71.51;101412.13;690774;28;69450;-64
2022/10/30 01:40:39;;;;;;;713.22;656.42;;;;;;;16.43;71.47;101405.84;691861;28;44105;-64
2022/10/30 01:41:00;;;;;;;710.85;654.03;;;;;;;16.41;71.60;101410.66;688815;28;46321;-64
2022/10/30 01:41:22;;;;;;;720.95;663.90;;;;;;;16.42;71.48;101408.75;690672;28;22429;-64
2022/10/30 01:41:44;;;;;;;710.20;653.38;;;;;;;16.40;71.73;101409.78;689474;28;45291;-64
2022/10/30 01:42:10;;;;;;;704.55;647.83;;;;;;;16.36;71.66;101402.22;689912;28;44348;-64
2022/10/30 01:42:47;;;;;;;695.45;639.03;;;;;;;16.39;71.55;101410.84;688663;28;136441;-64
2022/10/30 01:43:11;;;;;;;725.17;667.95;;;;;;;16.40;71.61;101417.13;688287;28;137440;-64
2022/10/30 01:43:33;;;;;;;727.22;670.05;;;;;;;16.39;71.48;101413.59;691547;28;21537;-64
2022/10/30 01:44:02;;;;;;;728.67;671.33;;;;;;;16.39;71.56;101412.72;691710;28;70214;-65
2022/10/30 01:44:27;;;;;;;706.60;649.95;;;;;;;16.38;71.41;101411.88;688325;28;138643;-64
2022/10/30 01:44:49;;;;;;;720.97;663.92;;;;;;;16.38;71.43;101413.78;689475;28;115937;-65
2022/10/30 01:45:14;;;;;;;708.13;651.45;;;;;;;16.36;71.61;101411.25;690849;28;46250;-64
2022/10/30 01:45:46;;;;;;;701.75;645.15;;;;;;;16.36;71.38;101407.66;689369;28;116099;-65
2022/10/30 01:46:17;;;;;;;721.38;664.30;;;;;;;16.35;71.25;101415.00;688851;28;137677;-64
2022/10/30 01:46:52;;;;;;;716.17;659.22;;;;;;;16.34;71.55;101405.13;690968;28;135841;-64
2022/10/30 01:47:21;;;;;;;712.97;655.85;;;;;;;16.33;71.25;101408.91;690379;28;158908;-64
2022/10/30 01:47:51;;;;;;;718.17;661.22;;;;;;;16.33;71.31;101406.19;691131;28;137732;-64
2022/10/30 01:48:32;;;;;;;711.60;654.90;;;;;;;16.33;71.49;101410.78;688510;28;137534;-64
2022/10/30 01:49:08;;;;;;;715.47;658.67;;;;;;;16.23;71.63;101400.25;687861;28;156190;-64
2022/10/30 01:49:51;;;;;;;713.30;656.50;;;;;;;16.29;71.50;101404.91;688132;28;137410;-64
2022/10/30 01:50:22;;;;;;;707.70;651.00;;;;;;;16.28;71.57;101396.91;688323;28;136007;-64